4 de julio de 2022

Hora Código Tiempo Temp. Visibilidad Cielo nuboso Viento METAR/SPECI
11:25 p. m.
V
63 °F 6¼ mi+ - 280° 280° 13 kt METAR EHMA 042125Z AUTO 28013KT 9999 FEW027 17/10 Q1020
10:55 p. m.
V
61 °F 6¼ mi+ - 280° 280° 14 kt METAR EHMA 042055Z AUTO 28014KT 9999 FEW027 16/10 Q1020
10:25 p. m.
V
63 °F 6¼ mi+ - 280° 280° 13 kt METAR EHMA 042025Z AUTO 28013KT 9999 FEW025 17/10 Q1019
9:55 p. m.
V
63 °F 6¼ mi+ - 270° 270° 13 kt METAR EHMA 041955Z AUTO 27013KT 9999 FEW025 17/11 Q1019
9:25 p. m.
V
63 °F 6¼ mi+ - 280° 280° 14 kt METAR EHMA 041925Z AUTO 28014KT 9999 FEW022 SCT025 17/10 Q1019
8:55 p. m.
V
63 °F 6¼ mi+ 3.100 ft 290° 290° 15 kt METAR EHMA 041855Z AUTO 29015KT 9999 SCT022 SCT026 BKN031 17/11 Q1019
8:25 p. m.
V
63 °F 6¼ mi+ - 280° 280° 15 kt METAR EHMA 041825Z AUTO 28015KT 9999 FEW024 SCT033 17/11 Q1019
7:55 p. m.
V
63 °F 6¼ mi+ - 270° 270° 16 kt METAR EHMA 041755Z AUTO 27016KT 9999 FEW023 SCT046 17/11 Q1019
7:25 p. m.
V
63 °F 6¼ mi+ - 270° 270° 17 kt METAR EHMA 041725Z AUTO 27017KT 9999 FEW030 17/11 Q1019
6:55 p. m.
V
63 °F 6¼ mi+ - 280° 280° 17 kt METAR EHMA 041655Z AUTO 28017KT 9999 FEW030 17/10 Q1019
6:25 p. m.
V
63 °F 6¼ mi+ - 280° 280° 17 kt METAR EHMA 041625Z AUTO 28017KT 9999 NSC 17/10 Q1019
5:55 p. m.
V
63 °F 6¼ mi+ - 270° 270° 16 kt METAR EHMA 041555Z AUTO 27016KT 9999 SCT045 17/10 Q1019
5:25 p. m.
V
63 °F 6¼ mi+ 4.500 ft 270° 270° 16 kt METAR EHMA 041525Z AUTO 27016KT 9999 FEW034 BKN045 17/09 Q1019
4:55 p. m.
V
63 °F 6¼ mi+ 3.600 ft 280° 280° 18 kt METAR EHMA 041455Z AUTO 28018KT 9999 FEW032 BKN036 BKN041 17/10 Q1019
4:25 p. m.
V
63 °F 6¼ mi+ 3.400 ft 280° 280° 18 kt METAR EHMA 041425Z AUTO 28018KT 9999 SCT028 BKN034 OVC039 17/10 Q1019
3:55 p. m.
V
63 °F 6¼ mi+ 3.200 ft 280° 280° 18 kt METAR EHMA 041355Z AUTO 28018KT 9999 FEW028 BKN032 BKN037 17/10 Q1019
3:25 p. m.
V
63 °F 6¼ mi+ 3.100 ft 280° 280° 17 kt METAR EHMA 041325Z AUTO 28017KT 9999 FEW027 BKN031 BKN036 17/11 Q1018
2:55 p. m.
V
63 °F 6¼ mi+ 3.100 ft 280° 280° 16 kt METAR EHMA 041255Z AUTO 28016KT 9999 FEW026 BKN031 BKN040 17/11 Q1019
2:25 p. m.
V
63 °F 6¼ mi+ 3.200 ft 260° 260° 16 kt METAR EHMA 041225Z AUTO 26016KT 9999 FEW026 BKN032 BKN036 17/11 Q1019
1:55 p. m.
V
63 °F 6¼ mi+ 3.100 ft 260° 260° 16 kt METAR EHMA 041155Z AUTO 26016KT 9999 FEW027 BKN031 17/10 Q1019
1:25 p. m.
V
63 °F 6¼ mi+ - 270° 270° 16 kt METAR EHMA 041125Z AUTO 27016KT 230V300 9999 FEW024 SCT030 17/11 Q1019
12:55 p. m.
V
63 °F 6¼ mi+ - 280° 280° 15 kt METAR EHMA 041055Z AUTO 28015KT 9999 FEW024 SCT030 17/11 Q1019
12:25 p. m.
V
63 °F 6¼ mi+ 3.600 ft 280° 280° 16 kt METAR EHMA 041025Z AUTO 28016KT 9999 FEW026 SCT030 BKN036 17/12 Q1019
11:55 a. m.
V
63 °F 6¼ mi+ 4.700 ft 280° 280° 16 kt METAR EHMA 040955Z AUTO 28016KT 9999 FEW027 SCT030 BKN047 17/12 Q1019
11:25 a. m.
V
63 °F 6¼ mi+ - 270° 270° 13 kt METAR EHMA 040925Z AUTO 27013KT 9999 FEW037 SCT043 17/11 Q1018
10:55 a. m.
V
63 °F 6¼ mi+ 4.900 ft 280° 280° 15 kt METAR EHMA 040855Z AUTO 28015KT 9999 FEW020 BKN049 17/11 Q1018
10:25 a. m.
V
63 °F 6¼ mi+ - 270° 270° 13 kt METAR EHMA 040825Z AUTO 27013KT 9999 FEW020 17/12 Q1018
9:55 a. m.
V
63 °F 6¼ mi+ - 270° 270° 13 kt METAR EHMA 040755Z AUTO 27013KT 9999 NSC 17/12 Q1018
9:25 a. m.
V
63 °F 6¼ mi+ - 270° 270° 13 kt METAR EHMA 040725Z AUTO 27013KT 9999 FEW016 17/12 Q1018
8:55 a. m.
V
63 °F 6¼ mi+ - 240° 240° 11 kt METAR EHMA 040655Z AUTO 24011KT 9999 FEW016 17/13 Q1018
8:25 a. m.
V
63 °F 6¼ mi+ - 250° 250° 12 kt METAR EHMA 040625Z AUTO 25012KT 9999 NSC 17/13 Q1018
7:55 a. m.
V
63 °F 6¼ mi+ 4.300 ft 240° 240° 11 kt METAR EHMA 040555Z AUTO 24011KT 9999 BKN043 17/13 Q1018
7:25 a. m.
V
63 °F 6¼ mi+ 4.700 ft 250° 250° 11 kt METAR EHMA 040525Z AUTO 25011KT 9999 SCT043 BKN047 17/13 Q1018
6:55 a. m.
V
63 °F 6¼ mi+ - 250° 250° 12 kt METAR EHMA 040455Z AUTO 25012KT 9999 FEW048 17/13 Q1018
6:25 a. m.
L
63 °F 0 mi - 260° 260° 11 kt METAR EHMA 040425Z AUTO 26011KT //// // NSC 17/13 Q1017
5:55 a. m.
V
63 °F 6¼ mi+ - 250° 250° 11 kt METAR EHMA 040355Z AUTO 25011KT 9999 NSC 17/13 Q1018
5:25 a. m.
V
63 °F 6¼ mi+ - 260° 260° 12 kt METAR EHMA 040325Z AUTO 26012KT 9999 NSC 17/13 Q1018
4:55 a. m.
V
63 °F 6¼ mi+ - 260° 260° 12 kt METAR EHMA 040255Z AUTO 26012KT 9999 NCD 17/13 Q1018
4:25 a. m.
V
63 °F 6¼ mi+ - 260° 260° 11 kt METAR EHMA 040225Z AUTO 26011KT 9999 NCD 17/12 Q1018
3:55 a. m.
V
63 °F 6¼ mi+ - 260° 260° 12 kt METAR EHMA 040155Z AUTO 26012KT 9999 NSC 17/13 Q1018
3:25 a. m.
V
63 °F 6¼ mi+ - 260° 260° 12 kt METAR EHMA 040125Z AUTO 26012KT 9999 NSC 17/12 Q1018
2:55 a. m.
V
63 °F 6¼ mi+ - 250° 250° 11 kt METAR EHMA 040055Z AUTO 25011KT 9999 NSC 17/12 Q1018
2:25 a. m.
V
63 °F 6¼ mi+ - 260° 260° 12 kt METAR EHMA 040025Z AUTO 26012KT 9999 NCD 17/12 Q1018
1:55 a. m.
V
61 °F 6¼ mi+ - 270° 270° 13 kt METAR EHMA 032355Z AUTO 27013KT 9999 NCD 16/11 Q1019
1:25 a. m.
V
61 °F 6¼ mi+ - 250° 250° 9 kt METAR EHMA 032325Z AUTO 25009KT 9999 FEW024 16/11 Q1019
12:55 a. m.
V
61 °F 6¼ mi+ - 250° 250° 11 kt METAR EHMA 032255Z AUTO 25011KT 9999 FEW024 16/11 Q1019
12:25 a. m.
V
63 °F 6¼ mi+ - 280° 280° 8 kt METAR EHMA 032225Z AUTO 28008KT 9999 NCD 17/11 Q1019

3 de julio de 2022

Hora Código Tiempo Temp. Visibilidad Cielo nuboso Viento METAR/SPECI
11:55 p. m.
V
63 °F 6¼ mi+ - 280° 280° 10 kt METAR EHMA 032155Z AUTO 28010KT 9999 FEW025 17/11 Q1019
11:25 p. m.
V
63 °F 6¼ mi+ - 290° 290° 10 kt METAR EHMA 032125Z AUTO 29010KT 9999 FEW025 17/11 Q1019
10:55 p. m.
V
63 °F 6¼ mi+ - 280° 280° 7 kt METAR EHMA 032055Z AUTO 28007KT 9999 NCD 17/11 Q1019
10:25 p. m.
V
63 °F 6¼ mi+ - 300° 300° 8 kt METAR EHMA 032025Z AUTO 30008KT 9999 NCD 17/11 Q1019
9:55 p. m.
V
63 °F 6¼ mi+ - 280° 280° 8 kt METAR EHMA 031955Z AUTO 28008KT 9999 NCD 17/11 Q1018
9:25 p. m.
V
63 °F 6¼ mi+ - 290° 290° 11 kt METAR EHMA 031925Z AUTO 29011KT 9999 NSC 17/11 Q1018
8:55 p. m.
V
63 °F 6¼ mi+ - 290° 290° 11 kt METAR EHMA 031855Z AUTO 29011KT 9999 NSC 17/11 Q1018
8:25 p. m.
V
63 °F 6¼ mi+ - 300° 300° 12 kt METAR EHMA 031825Z AUTO 30012KT 9999 NCD 17/11 Q1018
7:55 p. m.
V
63 °F 6¼ mi+ - 310° 310° 13 kt METAR EHMA 031755Z AUTO 31013KT 9999 NSC 17/11 Q1018
7:25 p. m.
V
63 °F 6¼ mi+ - 310° 310° 15 kt METAR EHMA 031725Z AUTO 31015KT 9999 FEW020 17/12 Q1018
6:55 p. m.
V
63 °F 6¼ mi+ - 300° 300° 15 kt METAR EHMA 031655Z AUTO 30015KT 9999 FEW015 SCT038 17/12 Q1018
6:25 p. m.
V
63 °F 6¼ mi+ - 300° 300° 14 kt METAR EHMA 031625Z AUTO 30014KT 9999 FEW015 SCT037 17/13 Q1018
5:55 p. m.
V
63 °F 6¼ mi+ - 290° 290° 13 kt METAR EHMA 031555Z AUTO 29013KT 9999 FEW015 17/13 Q1018
5:25 p. m.
V
63 °F 6¼ mi+ - 290° 290° 13 kt METAR EHMA 031525Z AUTO 29013KT 9999 FEW015 17/13 Q1018
4:55 p. m.
V
63 °F 6¼ mi+ - 290° 290° 11 kt METAR EHMA 031455Z AUTO 29011KT 9999 NSC 17/13 Q1018
4:25 p. m.
V
63 °F 6¼ mi+ - 290° 290° 13 kt METAR EHMA 031425Z AUTO 29013KT 9999 NSC 17/13 Q1017
3:55 p. m.
V
63 °F 6¼ mi+ - 290° 290° 13 kt METAR EHMA 031355Z AUTO 29013KT 9999 NSC 17/13 Q1017
3:25 p. m.
V
63 °F 6¼ mi+ - 290° 290° 13 kt METAR EHMA 031325Z AUTO 29013KT 9999 NSC 17/14 Q1017
2:55 p. m.
V
63 °F 6¼ mi+ - 290° 290° 12 kt METAR EHMA 031255Z AUTO 29012KT 9999 FEW048 17/14 Q1017
2:25 p. m.
V
63 °F 6¼ mi+ - 290° 290° 10 kt METAR EHMA 031225Z AUTO 29010KT 9999 FEW048 17/14 Q1017
1:55 p. m.
V
63 °F 6¼ mi+ - 290° 290° 11 kt METAR EHMA 031155Z AUTO 29011KT 9999 NSC 17/14 Q1017
12:55 p. m.
V
63 °F 6¼ mi+ - 290° 290° 11 kt METAR EHMA 031055Z AUTO 29011KT 9999 NSC 17/14 Q1017
12:25 p. m.
V
63 °F 6¼ mi+ - 290° 290° 12 kt METAR EHMA 031025Z AUTO 29012KT 9999 FEW016 17/14 Q1017
11:55 a. m.
V
63 °F 6¼ mi+ - 280° 280° 11 kt METAR EHMA 030955Z AUTO 28011KT 9999 FEW016 17/14 Q1017
11:25 a. m.
V
64 °F 6¼ mi+ - 250° 250° 9 kt METAR EHMA 030925Z AUTO 25009KT 9999 FEW018 18/14 Q1017
10:55 a. m.
V
64 °F 6¼ mi+ - 260° 260° 11 kt METAR EHMA 030855Z AUTO 26011KT 9999 FEW015 18/14 Q1017
10:25 a. m.
V
64 °F 6¼ mi+ - 250° 250° 10 kt METAR EHMA 030825Z AUTO 25010KT 9999 NSC 18/14 Q1017
9:55 a. m.
V
64 °F 6¼ mi+ - 240° 240° 9 kt METAR EHMA 030755Z AUTO 24009KT 9999 NSC 18/14 Q1017
9:25 a. m.
V
64 °F 6¼ mi+ - 240° 240° 8 kt METAR EHMA 030725Z AUTO 24008KT 9999 NSC 18/14 Q1017
8:55 a. m.
V
64 °F 6¼ mi+ - 260° 260° 8 kt METAR EHMA 030655Z AUTO 26008KT 9999 NSC 18/13 Q1017
8:25 a. m.
V
64 °F 6¼ mi+ - 260° 260° 7 kt METAR EHMA 030625Z AUTO 26007KT 9999 NSC 18/13 Q1016
7:55 a. m.
V
64 °F 6¼ mi+ - 240° 240° 7 kt METAR EHMA 030555Z AUTO 24007KT 9999 NSC 18/13 Q1016
7:25 a. m.
V
64 °F 6¼ mi+ - 270° 270° 8 kt METAR EHMA 030525Z AUTO 27008KT 9999 NSC 18/13 Q1016
6:55 a. m.
V
64 °F 6¼ mi+ - 270° 270° 7 kt METAR EHMA 030455Z AUTO 27007KT 9999 NSC 18/13 Q1016
6:25 a. m.
V
64 °F 6¼ mi+ - 280° 280° 8 kt METAR EHMA 030425Z AUTO 28008KT 9999 NSC 18/13 Q1016
5:55 a. m.
V
64 °F 6¼ mi+ - 250° 250° 7 kt METAR EHMA 030355Z AUTO 25007KT 9999 NSC 18/14 Q1016
5:25 a. m.
V
64 °F 6¼ mi+ - 200° 200° 9 kt METAR EHMA 030325Z AUTO 20009KT 170V240 9999 NSC 18/13 Q1016
4:55 a. m.
V
64 °F 6¼ mi+ - 170° 170° 7 kt METAR EHMA 030255Z AUTO 17007KT 9999 NSC 18/14 Q1016
4:25 a. m.
V
63 °F 6¼ mi+ - 140° 140° 6 kt METAR EHMA 030225Z AUTO 14006KT 9999 NSC 17/15 Q1016
3:55 a. m.
V
64 °F 6¼ mi+ - 190° 190° 5 kt METAR EHMA 030155Z AUTO 19005KT 160V220 9999 NSC 18/15 Q1016
3:25 a. m.
V
64 °F 6¼ mi+ - 240° 240° 3 kt METAR EHMA 030125Z AUTO 24003KT 9999 NCD 18/15 Q1017
2:55 a. m.
V
64 °F 6¼ mi+ - 240° 240° 3 kt METAR EHMA 030055Z AUTO 24003KT 9999 NSC 18/15 Q1017
2:25 a. m.
V
64 °F 6¼ mi+ - 210° 210° 6 kt METAR EHMA 030025Z AUTO 21006KT 9999 NSC 18/14 Q1017
1:55 a. m.
V
66 °F 6¼ mi+ - 170° 170° 9 kt METAR EHMA 022355Z AUTO 17009KT 9999 NSC 19/15 Q1017
1:25 a. m.
V
66 °F 6¼ mi+ - 130° 130° 10 kt METAR EHMA 022325Z AUTO 13010KT 9999 NSC 19/14 Q1017
12:55 a. m.
V
66 °F 6¼ mi+ - 130° 130° 11 kt METAR EHMA 022255Z AUTO 13011KT 9999 NSC 19/15 Q1017
12:25 a. m.
V
66 °F 6¼ mi+ - 110° 110° 13 kt METAR EHMA 022225Z AUTO 11013KT 9999 NSC 19/16 Q1018

2 de julio de 2022

Hora Código Tiempo Temp. Visibilidad Cielo nuboso Viento METAR/SPECI
11:55 p. m.
V
66 °F 6¼ mi+ - 100° 100° 12 kt METAR EHMA 022155Z AUTO 10012KT 9999 NSC 19/15 Q1018
11:25 p. m.
V
66 °F 6¼ mi+ - 120° 120° 9 kt METAR EHMA 022125Z AUTO 12009KT 9999 NSC 19/15 Q1018
10:55 p. m.
V
66 °F 6¼ mi+ - 120° 120° 10 kt METAR EHMA 022055Z AUTO 12010KT 9999 NSC 19/14 Q1018
10:25 p. m.
V
66 °F 6¼ mi+ - 120° 120° 8 kt METAR EHMA 022025Z AUTO 12008KT 9999 NSC 19/14 Q1018
9:55 p. m.
V
66 °F 6¼ mi+ - 110° 110° 6 kt METAR EHMA 021955Z AUTO 11006KT 080V140 9999 NSC 19/14 Q1018
9:25 p. m.
V
66 °F 6¼ mi+ - 120° 120° 7 kt METAR EHMA 021925Z AUTO 12007KT 9999 NSC 19/14 Q1018
8:55 p. m.
V
68 °F 6¼ mi+ - 110° 110° 4 kt METAR EHMA 021855Z AUTO 11004KT 070V140 9999 NSC 20/14 Q1018
8:25 p. m.
V
68 °F 6¼ mi+ - Var Var 1 kt METAR EHMA 021825Z AUTO VRB01KT 9999 NSC 20/12 Q1018
7:55 p. m.
V
68 °F 6¼ mi+ - Var Var 1 kt METAR EHMA 021755Z AUTO VRB01KT 9999 NSC 20/11 Q1018
7:25 p. m.
V
68 °F 6¼ mi+ - 240° 240° 3 kt METAR EHMA 021725Z AUTO 24003KT 9999 NSC 20/11 Q1019
6:55 p. m.
V
68 °F 6¼ mi+ - 230° 230° 4 kt METAR EHMA 021655Z AUTO 23004KT 200V260 9999 NSC 20/11 Q1019
6:25 p. m.
V
68 °F 6¼ mi+ - 240° 240° 6 kt METAR EHMA 021625Z AUTO 24006KT 9999 NSC 20/12 Q1019
5:55 p. m.
V
68 °F 6¼ mi+ - 230° 230° 6 kt METAR EHMA 021555Z AUTO 23006KT 9999 NSC 20/11 Q1019
5:25 p. m.
V
66 °F 6¼ mi+ - 250° 250° 6 kt METAR EHMA 021525Z AUTO 25006KT 9999 NSC 19/12 Q1020
4:55 p. m.
V
66 °F 6¼ mi+ - 230° 230° 7 kt METAR EHMA 021455Z AUTO 23007KT 9999 NSC 19/12 Q1020
Datos más antiguos

Descarga nuestra aplicación

Acceso fácil a todo el tiempo de la aviación en tu teléfono móvil y tableta.
Con muchas funciones no disponibles en el sitio web, como la compatibilidad sin conexión y una lista personal de aeropuertos.

Nosotros y terceros seguimos tu comportamiento en Internet en nuestro sitio web con cookies. Si continúas, asumimos que estás de acuerdo con nuestra política de cookies. Más información